Time;durP1;ratioP1;P1;durP2;ratioP2;P2;SDS_P1;SDS_P2;PMS_P1;PMS_P2;Temp;Humidity;BMP_temperature;BMP_pressure;BME280_temperature;BME280_humidity;BME280_pressure;Samples;Min_cycle;Max_cycle;Signal;HPM_P1;HPM_P2
2023/07/21 00:00:19;;;;;;;6.07;1.70;;;23.50;65.50;;;;;;7401601;19;20233;-76
2023/07/21 00:02:48;;;;;;;2.55;1.80;;;23.60;66.10;;;;;;7406565;19;20010;-76
2023/07/21 00:05:17;;;;;;;2.45;1.60;;;23.60;65.60;;;;;;7429212;19;20022;-76
2023/07/21 00:07:49;;;;;;;3.67;1.70;;;23.60;65.60;;;;;;7407985;19;19999;-76
2023/07/21 00:10:18;;;;;;;3.10;1.67;;;23.60;66.90;;;;;;7407538;19;20015;-75
2023/07/21 00:12:49;;;;;;;4.85;1.90;;;23.60;66.60;;;;;;7405026;19;20006;-75
2023/07/21 00:15:21;;;;;;;4.53;2.45;;;23.50;67.60;;;;;;7406435;19;20054;-77
2023/07/21 00:17:51;;;;;;;8.60;2.40;;;23.50;67.80;;;;;;7404140;19;20014;-76
2023/07/21 00:20:21;;;;;;;5.57;1.77;;;23.50;68.60;;;;;;7426395;19;20204;-76
2023/07/21 00:22:53;;;;;;;5.75;2.05;;;23.50;68.40;;;;;;7394108;19;20082;-76
2023/07/21 00:25:22;;;;;;;5.38;2.13;;;23.40;68.90;;;;;;7386809;19;20007;-77
2023/07/21 00:27:50;;;;;;;4.30;1.70;;;23.40;68.90;;;;;;7387625;19;20021;-77
2023/07/21 00:30:21;;;;;;;2.85;1.60;;;23.40;68.20;;;;;;7386001;19;20011;-77
2023/07/21 00:32:49;;;;;;;4.93;1.50;;;23.30;67.80;;;;;;7386567;19;20018;-77
2023/07/21 00:35:18;;;;;;;5.90;1.95;;;23.20;68.00;;;;;;7405754;19;20007;-76
2023/07/21 00:37:47;;;;;;;2.13;1.45;;;23.20;68.00;;;;;;7387131;19;19999;-76
2023/07/21 00:40:18;;;;;;;1.92;1.40;;;23.30;68.20;;;;;;7386156;19;19999;-76
2023/07/21 00:42:47;;;;;;;4.97;1.60;;;23.30;68.20;;;;;;7386623;19;20031;-76
2023/07/21 00:45:16;;;;;;;2.28;1.70;;;23.20;68.90;;;;;;7396050;19;20032;-76
2023/07/21 00:47:45;;;;;;;3.97;1.20;;;23.20;68.90;;;;;;7388160;19;20024;-76
2023/07/21 00:50:16;;;;;;;3.70;1.77;;;23.20;69.10;;;;;;7405509;19;20024;-76
2023/07/21 00:52:45;;;;;;;3.22;1.45;;;23.20;70.00;;;;;;7386226;19;20006;-76
2023/07/21 00:55:14;;;;;;;3.20;1.58;;;23.20;70.60;;;;;;7382303;19;20006;-76
2023/07/21 00:57:46;;;;;;;3.60;1.50;;;23.30;72.00;;;;;;7382955;19;20007;-76
2023/07/21 01:00:15;;;;;;;3.55;1.40;;;23.30;71.60;;;;;;7382890;19;20002;-76
2023/07/21 01:02:49;;;;;;;2.42;1.48;;;23.30;72.30;;;;;;7381721;19;20003;-76
2023/07/21 01:05:18;;;;;;;6.93;1.70;;;23.20;71.70;;;;;;7403100;19;20386;-76
2023/07/21 01:07:47;;;;;;;7.30;1.98;;;23.20;71.60;;;;;;7383892;19;20002;-76
2023/07/21 01:10:16;;;;;;;7.15;1.70;;;23.10;71.40;;;;;;7381540;19;20006;-76
2023/07/21 01:12:48;;;;;;;5.35;1.80;;;23.10;72.00;;;;;;7388420;19;20019;-76
2023/07/21 01:15:17;;;;;;;3.88;2.05;;;23.10;72.00;;;;;;7389284;19;20003;-75
2023/07/21 01:17:46;;;;;;;3.13;1.83;;;23.10;71.80;;;;;;7391470;19;20006;-76
2023/07/21 01:20:15;;;;;;;6.82;1.60;;;23.10;72.60;;;;;;7413764;19;20003;-76
2023/07/21 01:22:51;;;;;;;2.75;1.45;;;23.20;72.90;;;;;;7387747;19;20012;-76
2023/07/21 01:25:23;;;;;;;2.63;1.58;;;23.10;73.20;;;;;;7384062;19;20011;-75
2023/07/21 01:27:54;;;;;;;2.45;1.80;;;23.10;74.30;;;;;;7386757;19;20014;-75
2023/07/21 01:30:24;;;;;;;3.25;1.67;;;23.10;74.30;;;;;;7385342;19;20031;-75
2023/07/21 01:32:54;;;;;;;6.85;1.90;;;23.00;73.10;;;;;;7385177;19;20018;-75
2023/07/21 01:35:24;;;;;;;2.35;1.77;;;22.90;73.60;;;;;;7410696;19;20046;-75
2023/07/21 01:37:55;;;;;;;4.35;1.75;;;22.80;74.10;;;;;;7388907;19;20380;-75
2023/07/21 01:40:28;;;;;;;2.47;1.60;;;22.80;74.50;;;;;;7387182;19;20002;-75
2023/07/21 01:42:56;;;;;;;8.13;1.90;;;22.70;74.50;;;;;;7385671;19;20007;-75
2023/07/21 01:45:26;;;;;;;4.00;2.00;;;22.80;74.90;;;;;;7382352;19;20003;-75
2023/07/21 01:47:56;;;;;;;2.75;1.67;;;22.70;74.60;;;;;;7381048;19;20003;-75
2023/07/21 01:50:27;;;;;;;3.47;1.98;;;22.70;74.80;;;;;;7401176;19;20013;-76
2023/07/21 01:52:57;;;;;;;4.60;1.90;;;22.70;74.80;;;;;;7381927;19;20010;-75
2023/07/21 01:55:34;;;;;;;2.90;1.73;;;22.70;74.80;;;;;;7380903;19;20015;-76
2023/07/21 01:58:09;;;;;;;3.05;2.00;;;22.70;74.90;;;;;;7383107;19;20035;-75
2023/07/21 02:00:43;;;;;;;1.80;1.50;;;22.70;74.60;;;;;;7380761;19;19999;-75
2023/07/21 02:03:14;;;;;;;2.85;2.10;;;22.70;74.50;;;;;;7381991;19;20248;-75
2023/07/21 02:05:46;;;;;;;4.28;1.90;;;22.70;74.50;;;;;;7379381;19;20106;-76
2023/07/21 02:08:15;;;;;;;2.75;1.67;;;22.60;74.10;;;;;;7400912;19;20006;-76
2023/07/21 02:10:47;;;;;;;5.07;1.83;;;22.50;73.70;;;;;;7378943;19;20007;-76
2023/07/21 02:13:17;;;;;;;4.22;2.35;;;22.40;73.80;;;;;;7380165;19;20027;-76
2023/07/21 02:15:47;;;;;;;7.20;2.10;;;22.30;74.10;;;;;;7380411;19;20066;-76
2023/07/21 02:18:15;;;;;;;2.42;1.92;;;22.30;74.30;;;;;;7380831;19;20003;-76
2023/07/21 02:20:44;;;;;;;5.35;1.80;;;22.40;74.00;;;;;;7382811;19;20007;-75
2023/07/21 02:23:15;;;;;;;2.55;1.90;;;22.30;73.70;;;;;;7404240;19;20010;-75
2023/07/21 02:25:47;;;;;;;6.93;1.90;;;22.40;73.50;;;;;;7383298;19;19998;-75
2023/07/21 02:28:15;;;;;;;3.88;1.98;;;22.40;73.30;;;;;;7383452;19;20006;-75
2023/07/21 02:30:44;;;;;;;11.07;2.05;;;22.30;73.20;;;;;;7382535;19;20015;-75
2023/07/21 02:33:15;;;;;;;3.17;1.90;;;22.30;72.90;;;;;;7384020;19;20014;-75
2023/07/21 02:35:43;;;;;;;3.40;1.90;;;22.30;73.10;;;;;;7379835;19;20006;-75
2023/07/21 02:38:15;;;;;;;8.63;2.10;;;22.30;74.10;;;;;;7404550;19;20023;-76
2023/07/21 02:40:53;;;;;;;3.65;1.70;;;22.30;73.40;;;;;;7389132;19;20112;-76
2023/07/21 02:43:23;;;;;;;6.15;1.95;;;22.30;73.40;;;;;;7386809;19;20354;-76
2023/07/21 02:45:53;;;;;;;4.13;1.83;;;22.30;73.60;;;;;;7386549;19;20014;-76
2023/07/21 02:48:22;;;;;;;3.08;2.45;;;22.30;73.40;;;;;;7385787;19;20002;-75
2023/07/21 02:50:55;;;;;;;8.07;1.85;;;22.30;73.30;;;;;;7383293;19;20000;-75
2023/07/21 02:53:24;;;;;;;4.95;2.65;;;22.20;73.40;;;;;;7405238;19;20441;-75
2023/07/21 02:55:55;;;;;;;5.75;2.55;;;22.10;73.60;;;;;;7380432;19;20250;-75
2023/07/21 02:58:26;;;;;;;7.20;2.13;;;22.20;73.70;;;;;;7381779;19;20003;-75
2023/07/21 03:00:56;;;;;;;3.65;2.10;;;22.20;73.70;;;;;;7383637;19;20228;-75
2023/07/21 03:03:25;;;;;;;8.82;2.60;;;22.20;73.70;;;;;;7384045;19;20081;-75
2023/07/21 03:05:54;;;;;;;7.57;2.40;;;22.20;73.80;;;;;;7383950;19;20070;-75
2023/07/21 03:08:29;;;;;;;2.50;2.08;;;22.10;74.10;;;;;;7407711;19;20028;-75
2023/07/21 03:11:00;;;;;;;10.02;2.20;;;22.20;74.30;;;;;;7386388;19;20003;-75
2023/07/21 03:13:29;;;;;;;3.42;2.03;;;22.20;74.30;;;;;;7385053;19;20014;-75
2023/07/21 03:15:58;;;;;;;6.05;2.22;;;22.20;74.30;;;;;;7384362;19;19998;-75
2023/07/21 03:18:26;;;;;;;4.63;1.90;;;22.10;74.50;;;;;;7383804;19;20020;-75
2023/07/21 03:21:00;;;;;;;4.10;2.13;;;22.10;74.60;;;;;;7384339;19;20058;-75
2023/07/21 03:23:29;;;;;;;15.05;7.15;;;22.10;74.80;;;;;;7406734;19;20010;-75
2023/07/21 03:26:00;;;;;;;10.52;6.20;;;22.00;75.00;;;;;;7386756;19;20006;-75
2023/07/21 03:28:29;;;;;;;;;;;22.00;75.10;;;;;;7385039;19;20011;-75
2023/07/21 03:31:01;;;;;;;11.18;3.50;;;22.10;75.10;;;;;;7385261;19;19948;-75
2023/07/21 03:33:30;;;;;;;4.75;2.58;;;21.90;75.20;;;;;;7383077;19;20007;-75
2023/07/21 03:36:01;;;;;;;5.35;2.60;;;21.90;75.10;;;;;;7383446;19;20007;-75
2023/07/21 03:38:30;;;;;;;3.20;2.47;;;21.80;74.70;;;;;;7405835;19;20013;-75
2023/07/21 03:41:07;;;;;;;8.05;2.45;;;21.60;75.10;;;;;;7389118;19;20279;-75
2023/07/21 03:43:36;;;;;;;7.45;2.63;;;21.50;75.10;;;;;;7384414;19;20252;-75
2023/07/21 03:46:07;;;;;;;8.38;2.75;;;21.60;75.40;;;;;;7383773;19;20011;-75
2023/07/21 03:48:36;;;;;;;4.10;2.03;;;21.60;75.40;;;;;;7383258;19;20082;-75
2023/07/21 03:51:07;;;;;;;4.50;2.22;;;21.60;75.40;;;;;;7383663;19;20003;-75
2023/07/21 03:53:36;;;;;;;5.45;2.03;;;21.70;75.40;;;;;;7382824;19;20006;-74
2023/07/21 03:56:14;;;;;;;6.75;2.38;;;21.60;75.50;;;;;;7405407;19;20039;-77
2023/07/21 03:58:53;;;;;;;2.90;2.35;;;21.60;75.50;;;;;;7383955;19;20023;-76
2023/07/21 04:01:25;;;;;;;5.63;2.70;;;21.60;75.50;;;;;;7384972;19;20011;-76
2023/07/21 04:03:54;;;;;;;3.92;1.92;;;21.60;75.40;;;;;;7382962;19;20014;-75
2023/07/21 04:06:24;;;;;;;3.08;1.92;;;21.50;74.80;;;;;;7383852;19;20020;-75
2023/07/21 04:08:53;;;;;;;11.77;2.78;;;21.60;75.00;;;;;;7381005;19;20248;-74
2023/07/21 04:11:25;;;;;;;15.63;8.48;;;21.50;75.00;;;;;;7402824;19;20003;-75
2023/07/21 04:13:54;;;;;;;5.93;2.63;;;21.60;75.80;;;;;;7384733;19;20235;-75
2023/07/21 04:16:22;;;;;;;4.63;2.42;;;21.60;76.10;;;;;;7383383;19;20007;-75
2023/07/21 04:18:51;;;;;;;3.88;2.20;;;21.50;76.90;;;;;;7383106;19;20003;-75
2023/07/21 04:21:20;;;;;;;7.85;2.33;;;21.50;76.90;;;;;;7382084;19;20011;-76
2023/07/21 04:23:49;;;;;;;4.57;2.63;;;21.50;77.90;;;;;;7380915;19;20011;-76
2023/07/21 04:26:17;;;;;;;3.55;2.20;;;21.50;78.60;;;;;;7403399;19;20053;-77
2023/07/21 04:28:49;;;;;;;5.20;2.20;;;21.50;79.30;;;;;;7382795;19;20009;-76
2023/07/21 04:31:22;;;;;;;4.13;2.50;;;21.60;79.40;;;;;;7380592;19;20135;-76
2023/07/21 04:33:51;;;;;;;4.63;2.30;;;21.60;79.20;;;;;;7383669;19;20024;-76
2023/07/21 04:36:20;;;;;;;4.72;2.25;;;21.60;79.70;;;;;;7383811;19;20011;-76
2023/07/21 04:38:48;;;;;;;7.90;2.47;;;21.60;79.10;;;;;;7380905;19;20013;-75
2023/07/21 04:41:17;;;;;;;5.90;2.28;;;21.60;79.10;;;;;;7406745;19;20193;-75
2023/07/21 04:43:48;;;;;;;5.03;2.40;;;21.60;79.90;;;;;;7386067;19;20406;-74
2023/07/21 04:46:17;;;;;;;;;;;21.60;80.00;;;;;;7386482;19;20272;-76
2023/07/21 04:48:46;;;;;;;3.40;2.20;;;21.60;80.10;;;;;;7385507;19;19907;-75
2023/07/21 04:51:15;;;;;;;2.88;1.95;;;21.60;79.90;;;;;;7380993;19;20018;-75
2023/07/21 04:53:44;;;;;;;2.22;2.03;;;21.70;80.90;;;;;;7384533;19;20066;-76
2023/07/21 04:56:14;;;;;;;4.50;2.47;;;21.70;80.00;;;;;;7402739;19;20007;-75
2023/07/21 04:58:44;;;;;;;5.60;2.17;;;21.70;80.10;;;;;;7382840;19;20010;-75
2023/07/21 05:01:15;;;;;;;4.68;2.10;;;21.70;80.50;;;;;;7384657;19;20065;-75
2023/07/21 05:03:44;;;;;;;;;;;21.70;80.50;;;;;;7383193;19;20007;-76
2023/07/21 05:06:13;;;;;;;2.58;2.15;;;21.80;81.00;;;;;;7382426;19;19907;-75
2023/07/21 05:08:43;;;;;;;4.03;2.40;;;21.90;80.20;;;;;;7379413;19;20006;-76
2023/07/21 05:11:25;;;;;;;3.20;2.15;;;21.90;79.80;;;;;;7405673;19;20212;-78
2023/07/21 05:14:46;;;;;;;4.45;2.22;;;21.90;79.80;;;;;;7384570;19;20007;-79
2023/07/21 05:20:46;;;;;;;9.43;2.30;;;21.80;78.50;;;;;;7278185;19;2004721;-75
2023/07/21 05:27:28;;;;;;;;;;;;;;;;;;;;;
2023/07/21 05:30:18;;;;;;;4.80;2.40;;;21.70;79.90;;;;;;7380495;19;20010;-76
2023/07/21 05:32:48;;;;;;;7.50;2.30;;;21.80;80.00;;;;;;7378900;19;20007;-76
2023/07/21 06:00:40;;;;;;;8.32;2.72;;;21.80;79.10;;;;;;7415030;19;20042;-74
2023/07/21 06:07:07;;;;;;;9.48;2.70;;;21.90;78.60;;;;;;7392923;19;19999;-76
2023/07/21 06:09:39;;;;;;;7.75;2.65;;;21.90;78.20;;;;;;7438221;19;20025;-76
2023/07/21 06:21:37;;;;;;;9.15;3.05;;;22.10;77.80;;;;;;7410750;19;19991;-77
2023/07/21 06:24:38;;;;;;;5.68;3.17;;;22.00;77.10;;;;;;7434952;19;19998;-77
2023/07/21 06:53:04;;;;;;;5.15;2.38;;;21.60;74.80;;;;;;7412623;19;20014;-77
2023/07/21 07:02:09;;;;;;;3.33;2.40;;;21.70;74.90;;;;;;7440060;19;20355;-74
2023/07/21 07:04:40;;;;;;;4.78;2.78;;;21.80;74.90;;;;;;7418519;19;20117;-76
2023/07/21 07:07:15;;;;;;;8.23;3.00;;;21.90;74.70;;;;;;7413947;19;20006;-77
2023/07/21 07:22:20;;;;;;;9.45;2.67;;;21.90;74.40;;;;;;7438842;19;20002;-77
2023/07/21 07:25:06;;;;;;;6.93;2.40;;;21.90;74.50;;;;;;7439044;19;20070;-77
2023/07/21 07:27:55;;;;;;;4.72;2.50;;;22.00;74.50;;;;;;7414053;19;20018;-76
2023/07/21 07:31:22;;;;;;;;;;;;;;;;;;;;;
2023/07/21 07:34:56;;;;;;;;;;;;;;;;;;;;;
2023/07/21 07:41:17;;;;;;;4.25;2.17;;;21.90;74.00;;;;;;7412527;19;20419;-74
2023/07/21 07:43:54;;;;;;;4.15;2.13;;;21.80;74.40;;;;;;7412116;19;20371;-73
2023/07/21 07:46:28;;;;;;;5.60;2.88;;;21.70;74.40;;;;;;7433212;19;20406;-73
2023/07/21 07:58:07;;;;;;;4.07;2.38;;;21.50;75.00;;;;;;7412201;19;20022;-74
2023/07/21 08:00:38;;;;;;;6.40;2.65;;;21.50;75.10;;;;;;7411877;19;20006;-74
2023/07/21 08:03:07;;;;;;;5.90;3.03;;;21.40;75.30;;;;;;7412674;19;20010;-74
2023/07/21 08:05:37;;;;;;;9.65;2.42;;;21.50;75.50;;;;;;7411321;19;20023;-75
2023/07/21 08:14:39;;;;;;;9.90;2.65;;;21.80;74.40;;;;;;7424454;19;20045;-74
2023/07/21 08:17:12;;;;;;;5.13;2.58;;;21.70;74.40;;;;;;7433006;19;20010;-74
2023/07/21 08:23:33;;;;;;;5.40;2.53;;;21.80;74.90;;;;;;7411320;19;20010;-77
2023/07/21 08:29:13;;;;;;;8.60;2.90;;;21.70;74.50;;;;;;7409217;19;19978;-74
2023/07/21 08:32:13;;;;;;;7.05;3.60;;;21.80;74.70;;;;;;7386798;19;20269;-75
2023/07/21 08:34:45;;;;;;;9.60;2.50;;;21.80;74.50;;;;;;7381794;19;20121;-75
2023/07/21 08:40:33;;;;;;;11.43;3.05;;;21.80;73.80;;;;;;7382904;19;19995;-75
2023/07/21 08:43:14;;;;;;;5.15;2.50;;;22.00;74.00;;;;;;7383800;19;20105;-75
2023/07/21 08:45:52;;;;;;;5.35;2.63;;;21.90;73.80;;;;;;7382220;19;20246;-75
2023/07/21 08:48:26;;;;;;;5.07;2.67;;;22.00;74.30;;;;;;7380004;19;20030;-76
2023/07/21 08:51:19;;;;;;;5.80;2.83;;;22.10;74.20;;;;;;7401970;19;20024;-76
2023/07/21 08:57:34;;;;;;;5.38;2.60;;;22.10;72.50;;;;;;7383352;19;20031;-76
2023/07/21 09:00:04;;;;;;;6.40;2.90;;;22.20;71.50;;;;;;7402950;19;20246;-74
2023/07/21 09:09:28;;;;;;;6.25;2.65;;;21.90;70.10;;;;;;7409787;19;19983;-78
2023/07/21 09:14:57;;;;;;;4.85;2.85;;;22.10;72.20;;;;;;7382295;19;20006;-76
2023/07/21 09:23:51;;;;;;;7.88;2.97;;;22.30;71.90;;;;;;7392184;19;19983;-74
2023/07/21 10:01:45;;;;;;;5.93;2.70;;;22.80;69.30;;;;;;7410853;19;20010;-77
2023/07/21 10:14:06;;;;;;;4.82;2.88;;;23.60;67.80;;;;;;7393876;19;19979;-74
2023/07/21 10:16:35;;;;;;;8.85;3.00;;;23.60;66.50;;;;;;7411062;19;20011;-77
2023/07/21 10:19:10;;;;;;;7.88;2.92;;;23.70;66.20;;;;;;7385320;19;20023;-74
2023/07/21 10:24:56;;;;;;;7.03;2.90;;;23.90;65.00;;;;;;7381827;19;20037;-78
2023/07/21 10:30:42;;;;;;;4.80;2.50;;;24.00;63.60;;;;;;7382543;19;20414;-78
2023/07/21 10:40:07;;;;;;;4.75;2.85;;;24.10;64.30;;;;;;7402569;19;20485;-77
2023/07/21 10:42:40;;;;;;;5.13;3.03;;;24.10;63.70;;;;;;7381604;19;20091;-77
2023/07/21 10:49:09;;;;;;;5.00;2.88;;;24.10;62.90;;;;;;7405527;19;20013;-77
2023/07/21 10:51:53;;;;;;;7.35;2.58;;;24.20;63.40;;;;;;7383903;19;20003;-76
2023/07/21 11:01:19;;;;;;;4.70;2.78;;;24.10;61.60;;;;;;7416971;19;20065;-80
2023/07/21 11:29:26;;;;;;;4.70;2.65;;;24.60;59.20;;;;;;1342091;19;3180585;-76
2023/07/21 11:31:57;;;;;;;5.15;2.65;;;24.60;59.30;;;;;;7414008;19;20048;-77
2023/07/21 11:34:28;;;;;;;5.50;2.50;;;24.70;59.90;;;;;;7436785;19;20244;-76
2023/07/21 11:36:59;;;;;;;7.88;2.90;;;24.60;59.70;;;;;;7419625;19;20243;-75
2023/07/21 11:39:33;;;;;;;3.58;2.58;;;24.70;59.30;;;;;;7420474;19;20357;-76
2023/07/21 11:42:05;;;;;;;4.47;2.30;;;24.60;58.20;;;;;;7416813;19;20290;-77
2023/07/21 11:44:37;;;;;;;4.60;2.20;;;24.60;56.40;;;;;;7414298;19;20083;-77
2023/07/21 11:47:14;;;;;;;2.35;2.15;;;24.80;56.80;;;;;;7414091;19;19998;-76
2023/07/21 11:49:44;;;;;;;4.22;1.90;;;25.00;56.80;;;;;;7435212;19;20394;-76
2023/07/21 11:52:24;;;;;;;5.10;2.20;;;25.10;56.10;;;;;;7418236;19;20006;-76
2023/07/21 11:54:57;;;;;;;5.97;2.15;;;25.30;56.30;;;;;;7418661;19;20410;-77
2023/07/21 11:57:27;;;;;;;5.93;1.90;;;25.50;55.20;;;;;;7422026;19;20013;-76
2023/07/21 11:59:59;;;;;;;4.10;2.83;;;25.70;54.30;;;;;;7417424;19;20007;-77
2023/07/21 12:02:28;;;;;;;2.58;2.13;;;25.70;54.80;;;;;;7415523;19;20007;-77
2023/07/21 12:04:58;;;;;;;3.63;1.92;;;25.70;54.80;;;;;;7413298;19;20003;-76
2023/07/21 12:07:31;;;;;;;4.03;1.95;;;25.60;54.60;;;;;;7434935;19;20393;-77
2023/07/21 12:10:15;;;;;;;8.65;2.10;;;25.60;54.50;;;;;;7415711;19;20017;-76
2023/07/21 12:13:03;;;;;;;2.97;2.03;;;25.60;53.10;;;;;;7418280;19;20010;-77
2023/07/21 12:15:50;;;;;;;5.18;1.88;;;25.60;54.00;;;;;;7417953;19;20011;-77
2023/07/21 12:22:15;;;;;;;3.03;2.28;;;25.50;52.90;;;;;;7417865;19;20027;-76
2023/07/21 12:27:47;;;;;;;4.25;2.15;;;25.60;52.90;;;;;;7388154;19;19911;-76
2023/07/21 12:30:15;;;;;;;4.30;2.17;;;25.70;53.20;;;;;;7406331;19;20015;-72
2023/07/21 12:32:47;;;;;;;3.33;1.90;;;26.00;53.70;;;;;;7384907;19;20031;-74
2023/07/21 12:38:32;;;;;;;3.80;2.13;;;26.20;52.90;;;;;;7388096;19;20032;-75
2023/07/21 12:41:04;;;;;;;3.45;2.15;;;26.30;52.50;;;;;;7385890;19;20027;-76
2023/07/21 12:46:44;;;;;;;3.65;2.35;;;26.50;52.10;;;;;;7413068;19;20050;-75
2023/07/21 12:52:44;;;;;;;4.13;2.13;;;26.50;52.30;;;;;;7385923;19;20007;-74
2023/07/21 12:58:27;;;;;;;4.38;2.10;;;26.60;52.00;;;;;;7391572;19;20011;-74
2023/07/21 13:01:05;;;;;;;5.07;2.30;;;26.50;52.50;;;;;;7395241;19;20007;-79
2023/07/21 13:06:40;;;;;;;3.25;2.28;;;26.50;52.50;;;;;;7414274;19;20013;-74
2023/07/21 13:16:03;;;;;;;7.50;2.65;;;25.90;53.10;;;;;;7407552;19;19991;-78
2023/07/21 13:18:49;;;;;;;4.03;2.20;;;25.90;53.20;;;;;;7407908;19;20010;-77
2023/07/21 13:37:50;;;;;;;2.90;2.40;;;25.80;53.10;;;;;;7436755;19;20336;-73
2023/07/21 13:43:33;;;;;;;1.98;1.60;;;25.60;51.80;;;;;;7444490;19;20000;-76
2023/07/21 13:46:07;;;;;;;3.05;1.83;;;25.40;52.30;;;;;;7439408;19;20010;-75
2023/07/21 13:49:19;;;;;;;6.88;2.25;;;25.50;52.20;;;;;;7442317;19;20039;-77
2023/07/21 13:52:13;;;;;;;3.05;2.00;;;25.50;51.90;;;;;;7421866;19;20050;-80
2023/07/21 13:55:20;;;;;;;5.20;2.30;;;25.60;52.40;;;;;;7417731;19;20035;-77
2023/07/21 14:11:00;;;;;;;4.00;2.35;;;26.30;52.90;;;;;;7441127;19;19978;-76
2023/07/21 14:34:46;;;;;;;4.28;2.33;;;26.40;52.30;;;;;;7437568;19;20021;-78
2023/07/21 14:40:48;;;;;;;8.45;2.22;;;26.50;52.80;;;;;;7405295;19;20013;-75
2023/07/21 14:49:42;;;;;;;4.72;2.28;;;26.70;51.10;;;;;;7408320;19;20050;-75
2023/07/21 15:22:12;;;;;;;2.63;2.10;;;27.80;50.60;;;;;;7403976;19;20058;-76
2023/07/21 15:27:49;;;;;;;5.10;2.38;;;28.10;49.40;;;;;;7380977;19;20031;-78
2023/07/21 15:30:17;;;;;;;3.67;2.20;;;28.00;50.10;;;;;;7380560;19;20037;-74
2023/07/21 16:06:59;;;;;;;2.63;2.22;;;27.00;52.40;;;;;;7361326;19;20014;-77
2023/07/21 16:09:32;;;;;;;5.68;2.70;;;27.30;51.40;;;;;;7404682;19;20100;-76
2023/07/21 16:12:25;;;;;;;5.30;2.50;;;27.40;51.10;;;;;;7383205;19;20025;-77
2023/07/21 16:15:25;;;;;;;3.80;2.35;;;27.50;50.90;;;;;;7379389;19;20006;-75
2023/07/21 16:24:18;;;;;;;6.30;2.20;;;29.40;49.00;;;;;;7406017;19;20028;-76
2023/07/21 16:26:50;;;;;;;3.78;2.40;;;29.70;47.80;;;;;;7381263;19;20031;-76
2023/07/21 16:29:22;;;;;;;5.68;2.60;;;29.10;48.20;;;;;;7379284;19;20374;-76
2023/07/21 16:51:48;;;;;;;6.75;3.08;;;27.90;50.20;;;;;;6409439;19;15294016;-76
2023/07/21 16:54:31;;;;;;;5.80;3.53;;;28.00;49.80;;;;;;7414975;19;20417;-75
2023/07/21 16:57:22;;;;;;;6.38;3.72;;;28.90;48.70;;;;;;7436114;19;20007;-78
2023/07/21 16:59:56;;;;;;;8.32;4.32;;;29.60;47.80;;;;;;7418608;19;20006;-74
2023/07/21 17:02:24;;;;;;;16.90;4.28;;;30.10;47.80;;;;;;7415873;19;20166;-74
2023/07/21 17:05:27;;;;;;;6.40;4.30;;;30.90;46.40;;;;;;7419088;19;20223;-75
2023/07/21 17:08:02;;;;;;;10.95;4.95;;;31.70;44.90;;;;;;7419335;19;20298;-76
2023/07/21 17:11:17;;;;;;;10.60;5.60;;;31.20;45.10;;;;;;7440812;19;20030;-76
2023/07/21 17:26:33;;;;;;;12.05;6.10;;;27.50;50.10;;;;;;7417890;19;20006;-74
2023/07/21 17:35:24;;;;;;;12.70;5.13;;;26.80;51.00;;;;;;7420697;19;20070;-73
2023/07/21 17:37:52;;;;;;;11.00;4.32;;;26.40;51.60;;;;;;7409868;19;20031;-75
2023/07/21 17:40:21;;;;;;;8.50;4.18;;;26.20;51.80;;;;;;7431729;19;20086;-72
2023/07/21 17:42:53;;;;;;;8.15;3.70;;;26.10;52.20;;;;;;7410038;19;20270;-72
2023/07/21 17:45:23;;;;;;;10.15;3.42;;;26.00;52.20;;;;;;7408785;19;20019;-73
2023/07/21 17:47:52;;;;;;;6.05;3.30;;;25.80;52.20;;;;;;7408471;19;20006;-73
2023/07/21 17:50:21;;;;;;;8.20;3.05;;;25.90;52.70;;;;;;7408740;19;20006;-74
2023/07/21 17:52:50;;;;;;;5.38;2.80;;;26.00;52.40;;;;;;7401235;19;20003;-75
2023/07/21 17:55:19;;;;;;;9.98;3.13;;;26.40;51.60;;;;;;7381835;19;20014;-73
2023/07/21 17:57:55;;;;;;;4.90;3.13;;;26.90;51.20;;;;;;7381234;19;20002;-77
2023/07/21 18:00:24;;;;;;;4.00;2.85;;;27.20;50.80;;;;;;7404681;19;20026;-72
2023/07/21 18:02:54;;;;;;;8.65;3.17;;;27.20;50.50;;;;;;7370189;19;20006;-74
2023/07/21 18:05:23;;;;;;;6.85;2.92;;;27.40;50.40;;;;;;7384231;19;20053;-73
2023/07/21 18:07:52;;;;;;;5.00;2.80;;;27.50;50.10;;;;;;7384077;19;20079;-74
2023/07/21 18:10:21;;;;;;;7.78;3.00;;;27.50;50.20;;;;;;7381669;19;20242;-74
2023/07/21 18:12:53;;;;;;;7.22;3.38;;;27.40;50.30;;;;;;7389164;19;20007;-74
2023/07/21 18:15:22;;;;;;;4.45;2.80;;;27.20;50.60;;;;;;7402319;19;20020;-74
2023/07/21 18:17:51;;;;;;;5.82;2.97;;;27.30;50.00;;;;;;7383060;19;20006;-74
2023/07/21 18:20:32;;;;;;;7.28;2.58;;;27.60;49.50;;;;;;7384509;19;20420;-76
2023/07/21 18:23:02;;;;;;;11.15;3.00;;;27.70;49.30;;;;;;7387258;19;20050;-75
2023/07/21 18:48:44;;;;;;;7.03;3.17;;;26.70;50.80;;;;;;7435398;19;20341;-76
2023/07/21 18:51:18;;;;;;;4.05;2.42;;;26.60;50.50;;;;;;7413685;19;20035;-77
2023/07/21 18:53:52;;;;;;;7.75;2.80;;;26.90;49.90;;;;;;7413694;19;20023;-77
2023/07/21 18:56:21;;;;;;;4.38;2.95;;;27.10;49.70;;;;;;7415054;19;20024;-76
2023/07/21 18:58:54;;;;;;;4.28;2.80;;;27.10;49.30;;;;;;7410959;19;20002;-76
2023/07/21 19:01:28;;;;;;;8.57;3.30;;;27.20;49.10;;;;;;7410240;19;20014;-77
2023/07/21 19:04:19;;;;;;;4.53;3.05;;;27.20;49.20;;;;;;7411045;19;20025;-76
2023/07/21 19:07:00;;;;;;;3.33;2.90;;;27.00;49.00;;;;;;7427633;19;20127;-77
2023/07/21 19:09:40;;;;;;;4.45;2.80;;;26.50;49.50;;;;;;7428896;19;20006;-77
2023/07/21 19:21:19;;;;;;;6.10;3.35;;;25.40;51.00;;;;;;7408291;19;20434;-77
2023/07/21 19:27:33;;;;;;;6.38;2.88;;;25.20;51.90;;;;;;7409375;19;20048;-76
2023/07/21 19:30:56;;;;;;;6.95;3.25;;;25.00;52.10;;;;;;7409972;19;20126;-77
2023/07/21 19:33:50;;;;;;;5.68;3.72;;;24.90;52.30;;;;;;7431904;19;19998;-76
2023/07/21 19:39:31;;;;;;;6.63;4.07;;;24.70;52.70;;;;;;7406789;19;20220;-76
2023/07/21 19:42:08;;;;;;;6.20;3.85;;;24.70;53.00;;;;;;7410070;19;20158;-76
2023/07/21 19:44:38;;;;;;;7.15;3.60;;;24.50;53.20;;;;;;7410705;19;20036;-75
2023/07/21 19:47:22;;;;;;;6.37;3.90;;;24.30;54.20;;;;;;7404622;19;20012;-75
2023/07/21 19:49:51;;;;;;;11.38;3.83;;;24.10;54.30;;;;;;7377639;19;20003;-76
2023/07/21 19:52:22;;;;;;;7.78;3.67;;;24.00;54.20;;;;;;7378404;19;20007;-76
2023/07/21 19:55:20;;;;;;;;;;;;;;;;;;;;;
2023/07/21 19:57:57;;;;;;;6.78;3.78;;;24.00;54.10;;;;;;7388342;19;20007;-76
2023/07/21 20:00:41;;;;;;;7.50;3.92;;;24.10;54.20;;;;;;7399086;19;20014;-76
2023/07/21 20:03:10;;;;;;;5.15;3.40;;;23.90;54.40;;;;;;7379186;19;20106;-75
2023/07/21 20:05:40;;;;;;;5.88;3.60;;;24.00;54.50;;;;;;7379176;19;20027;-75
2023/07/21 20:08:11;;;;;;;5.60;3.35;;;24.00;54.50;;;;;;7379318;19;20446;-76
2023/07/21 20:10:40;;;;;;;8.13;4.00;;;23.90;54.70;;;;;;7379872;19;20003;-76
2023/07/21 20:13:15;;;;;;;12.32;4.00;;;23.90;54.70;;;;;;7380282;19;19996;-76
2023/07/21 20:15:44;;;;;;;4.95;3.80;;;23.90;54.80;;;;;;7402126;19;20022;-76
2023/07/21 20:18:13;;;;;;;6.32;3.70;;;23.90;54.90;;;;;;7380459;19;20019;-76
2023/07/21 20:20:43;;;;;;;9.57;3.90;;;23.90;55.10;;;;;;7381208;19;20002;-76
2023/07/21 20:23:14;;;;;;;9.13;4.05;;;23.90;55.80;;;;;;7381106;19;20006;-76
2023/07/21 20:25:45;;;;;;;6.57;3.38;;;23.80;55.30;;;;;;7383892;19;20011;-75
2023/07/21 20:28:15;;;;;;;5.57;3.97;;;23.90;55.50;;;;;;7379473;19;20003;-75
2023/07/21 20:30:44;;;;;;;6.13;3.95;;;23.80;55.60;;;;;;7400945;19;20011;-76
2023/07/21 20:33:15;;;;;;;6.57;3.80;;;23.70;55.90;;;;;;7380529;19;20006;-76
2023/07/21 20:35:45;;;;;;;10.80;3.80;;;23.70;56.00;;;;;;7380217;19;20390;-75
2023/07/21 20:38:17;;;;;;;9.30;4.03;;;23.70;56.00;;;;;;7379675;19;20002;-75
2023/07/21 20:40:46;;;;;;;6.55;4.00;;;23.70;56.10;;;;;;7379325;19;20010;-76
2023/07/21 20:43:15;;;;;;;5.07;3.55;;;23.60;56.30;;;;;;7379059;19;20058;-75
2023/07/21 20:45:45;;;;;;;9.45;4.03;;;23.70;56.30;;;;;;7400823;19;20014;-75
2023/07/21 20:48:14;;;;;;;6.10;3.83;;;23.70;56.30;;;;;;7379138;19;20132;-75
2023/07/21 20:50:43;;;;;;;11.85;4.03;;;23.70;56.20;;;;;;7379972;19;20007;-75
2023/07/21 20:53:11;;;;;;;7.25;4.05;;;23.70;56.30;;;;;;7382367;19;20244;-74
2023/07/21 20:55:43;;;;;;;9.63;4.30;;;23.70;56.90;;;;;;7384673;19;20039;-76
2023/07/21 20:58:12;;;;;;;6.03;3.40;;;23.70;56.50;;;;;;7383754;19;20014;-76
2023/07/21 21:00:40;;;;;;;6.13;3.90;;;23.70;56.50;;;;;;7399255;19;20035;-75
2023/07/21 21:03:09;;;;;;;9.93;3.75;;;23.70;56.60;;;;;;7381628;19;20204;-75
2023/07/21 21:05:38;;;;;;;7.57;4.00;;;23.60;56.80;;;;;;7379379;19;20007;-76
2023/07/21 21:08:10;;;;;;;9.95;4.03;;;23.50;56.80;;;;;;7381204;19;20007;-76
2023/07/21 21:10:41;;;;;;;8.00;4.10;;;23.50;57.00;;;;;;7380759;19;20007;-76
2023/07/21 21:13:12;;;;;;;6.18;3.78;;;23.50;57.20;;;;;;7379681;19;20223;-75
2023/07/21 21:15:41;;;;;;;5.22;3.85;;;23.40;57.20;;;;;;7403111;19;20006;-76
2023/07/21 21:18:10;;;;;;;10.73;4.30;;;23.40;57.10;;;;;;7379765;19;20264;-76
2023/07/21 21:20:39;;;;;;;11.02;4.30;;;23.50;57.20;;;;;;7379926;19;20027;-76
2023/07/21 21:23:08;;;;;;;14.30;4.20;;;23.50;57.30;;;;;;7382327;19;20010;-76